createdAt,value
2022-09-07T00:01:13.308Z,22.0
2022-09-07T00:05:45.616Z,22.0
2022-09-07T00:10:52.002Z,21.9
2022-09-07T00:16:08.475Z,21.9
2022-09-07T00:21:14.787Z,21.9
2022-09-07T00:26:11.159Z,21.8
2022-09-07T00:31:17.694Z,21.8
2022-09-07T00:36:34.035Z,21.8
2022-09-07T00:42:00.480Z,21.7
2022-09-07T00:46:46.938Z,21.7
2022-09-07T00:51:53.207Z,21.7
2022-09-07T00:56:59.591Z,21.6
2022-09-07T01:02:06.195Z,21.5
2022-09-07T01:07:32.478Z,21.5
2022-09-07T01:12:18.818Z,21.4
2022-09-07T01:17:25.321Z,21.3
2022-09-07T01:22:31.717Z,21.2
2022-09-07T01:27:38.092Z,21.1
2022-09-07T01:32:44.484Z,21.0
2022-09-07T01:37:55.036Z,21.0
2022-09-07T01:42:57.288Z,20.9
2022-09-07T01:48:03.671Z,20.8
2022-09-07T01:53:00.095Z,20.8
2022-09-07T01:58:16.616Z,20.7
2022-09-07T02:03:23.039Z,20.7
2022-09-07T02:08:29.518Z,20.6
2022-09-07T02:13:35.804Z,20.5
2022-09-07T02:18:32.161Z,20.5
2022-09-07T02:23:48.644Z,20.4
2022-09-07T02:28:44.991Z,20.3
2022-09-07T02:34:01.540Z,20.3
2022-09-07T02:39:07.901Z,20.2
2022-09-07T02:44:14.283Z,20.2
2022-09-07T02:49:10.637Z,20.1
2022-09-07T02:54:27.041Z,20.1
2022-09-07T02:59:33.435Z,20.0
2022-09-07T03:04:39.935Z,19.9
2022-09-07T03:09:47.460Z,19.9
2022-09-07T03:14:43.878Z,19.8
2022-09-07T03:21:02.394Z,19.7
2022-09-07T03:26:06.773Z,19.7
2022-09-07T03:35:09.444Z,19.6
2022-09-07T03:40:25.848Z,19.4
2022-09-07T03:45:32.235Z,19.4
2022-09-07T03:51:02.769Z,19.3
2022-09-07T03:55:45.207Z,19.2
2022-09-07T04:00:41.573Z,19.1
2022-09-07T04:05:57.965Z,19.0
2022-09-07T04:11:04.355Z,18.9
2022-09-07T04:16:00.712Z,18.9
2022-09-07T04:21:21.125Z,18.8
2022-09-07T04:26:23.496Z,18.7
2022-09-07T04:36:26.512Z,18.6
2022-09-07T04:42:02.944Z,18.5
2022-09-07T04:47:09.399Z,18.4
2022-09-07T04:51:55.746Z,18.4
2022-09-07T04:56:52.108Z,18.3
2022-09-07T05:02:08.560Z,18.2
2022-09-07T05:07:04.874Z,18.2
2022-09-07T05:12:21.273Z,18.2
2022-09-07T05:17:27.654Z,18.1
2022-09-07T05:22:58.086Z,18.1
2022-09-07T05:43:13.600Z,18.0
2022-09-07T05:53:36.624Z,18.0
2022-09-07T05:58:08.952Z,17.9
2022-09-07T06:03:25.454Z,18.0
2022-09-07T06:08:55.801Z,18.0
2022-09-07T06:13:38.138Z,18.0
2022-09-07T06:18:44.517Z,18.1
2022-09-07T06:23:50.926Z,18.1
2022-09-07T06:28:58.099Z,18.2
2022-09-07T06:34:03.765Z,18.2
2022-09-07T06:39:10.141Z,18.3
2022-09-07T06:44:16.651Z,18.4
2022-09-07T06:49:23.012Z,18.5
2022-09-07T06:59:34.780Z,18.7
2022-09-07T07:05:26.261Z,18.9
2022-09-07T07:09:48.570Z,19.0
2022-09-07T07:15:18.977Z,19.1
2022-09-07T07:20:21.366Z,19.3
2022-09-07T07:25:07.710Z,19.4
2022-09-07T07:30:14.095Z,19.6
2022-09-07T07:35:10.484Z,19.7
2022-09-07T07:40:19.048Z,20.0
2022-09-07T07:50:43.666Z,20.5
2022-09-07T07:55:43.792Z,20.7
2022-09-07T08:00:54.629Z,20.9
2022-09-07T08:05:48.810Z,21.1
2022-09-07T08:11:04.201Z,21.3
2022-09-07T08:16:01.653Z,21.7
2022-09-07T08:21:17.085Z,22.2
2022-09-07T08:26:14.418Z,22.8
2022-09-07T08:31:30.872Z,23.2
2022-09-07T08:36:41.243Z,23.6
2022-09-07T08:41:43.593Z,23.7
2022-09-07T08:46:50.145Z,23.7
2022-09-07T08:51:56.390Z,23.7
2022-09-07T08:57:22.627Z,23.7
2022-09-07T09:07:15.545Z,23.4
2022-09-07T09:12:21.978Z,23.4
2022-09-07T09:17:28.494Z,23.3
2022-09-07T09:22:25.012Z,23.3
2022-09-07T09:27:41.471Z,23.2
2022-09-07T09:32:37.947Z,23.1
2022-09-07T09:38:38.495Z,23.0
2022-09-07T09:43:00.777Z,23.0
2022-09-07T09:48:07.159Z,22.9
2022-09-07T09:53:03.533Z,22.8
2022-09-07T10:03:59.532Z,22.6
2022-09-07T10:08:32.977Z,22.5
2022-09-07T10:13:43.215Z,22.5
2022-09-07T10:18:45.503Z,22.5
2022-09-07T10:29:18.460Z,22.5
2022-09-07T10:39:11.174Z,22.6
2022-09-07T10:44:07.538Z,22.7
2022-09-07T10:49:23.972Z,22.9
2022-09-07T10:54:44.462Z,23.1
2022-09-07T11:04:33.321Z,24.1
2022-09-07T11:09:49.636Z,24.8
2022-09-07T11:14:46.083Z,25.6
2022-09-07T11:20:36.584Z,27.2
2022-09-07T11:25:46.684Z,27.2
2022-09-07T11:30:50.429Z,27.8
2022-09-07T11:35:46.796Z,28.1
2022-09-07T11:41:03.192Z,28.2
2022-09-07T11:46:09.626Z,28.6
2022-09-07T11:51:40.077Z,28.9
2022-09-07T11:56:46.468Z,29.4
2022-09-07T12:01:28.954Z,29.7
2022-09-07T12:06:35.444Z,29.7
2022-09-07T12:11:41.941Z,29.7
2022-09-07T12:16:48.306Z,29.7
2022-09-07T12:21:54.685Z,29.7
2022-09-07T12:27:01.097Z,29.8
2022-09-07T12:32:53.251Z,29.7
2022-09-07T12:37:33.871Z,29.6
2022-09-07T12:42:40.279Z,29.4
2022-09-07T12:52:22.972Z,29.0
2022-09-07T13:12:57.426Z,28.3
2022-09-07T13:18:29.089Z,28.2
2022-09-07T13:28:16.766Z,27.8
2022-09-07T13:38:20.582Z,27.6
2022-09-07T13:43:35.954Z,27.6
2022-09-07T13:48:43.450Z,27.6
2022-09-07T13:53:49.957Z,27.6
2022-09-07T13:58:56.316Z,27.6
2022-09-07T14:04:02.822Z,27.7
2022-09-07T14:09:09.234Z,27.8
2022-09-07T14:14:19.593Z,28.0
2022-09-07T14:19:21.965Z,28.2
2022-09-07T14:24:18.346Z,28.3
2022-09-07T14:29:34.759Z,28.4
2022-09-07T14:34:41.155Z,28.5
2022-09-07T14:39:47.613Z,28.6
2022-09-07T14:44:55.123Z,28.6
2022-09-07T14:50:01.634Z,28.5
2022-09-07T14:55:10.278Z,28.5
2022-09-07T15:00:16.811Z,28.5
2022-09-07T15:05:47.156Z,28.5
2022-09-07T15:10:29.584Z,28.4
2022-09-07T15:15:48.909Z,28.3
2022-09-07T15:20:42.275Z,28.2
2022-09-07T15:25:50.868Z,28.1
2022-09-07T15:30:45.259Z,28.0
2022-09-07T15:36:01.434Z,27.9
2022-09-07T15:41:28.083Z,27.8
2022-09-07T15:46:04.506Z,27.7
2022-09-07T15:56:41.472Z,27.4
2022-09-07T16:07:04.793Z,27.2
2022-09-07T16:11:50.219Z,27.1
2022-09-07T16:21:48.860Z,26.8
2022-09-07T16:27:05.289Z,26.8
2022-09-07T16:37:19.105Z,26.5
2022-09-07T16:42:25.614Z,26.4
2022-09-07T16:47:21.970Z,26.3
2022-09-07T16:52:58.527Z,26.2
2022-09-07T17:07:57.702Z,25.9
2022-09-07T17:28:23.764Z,25.5
2022-09-07T17:33:30.189Z,25.3
2022-09-07T17:43:45.733Z,25.1
2022-09-07T17:49:19.241Z,24.9
2022-09-07T17:53:58.665Z,24.8
2022-09-07T18:04:00.283Z,24.5
2022-09-07T18:11:44.971Z,24.4
2022-09-07T18:15:42.407Z,24.2
2022-09-07T18:30:24.497Z,23.6
2022-09-07T18:40:38.456Z,23.5
2022-09-07T18:50:51.241Z,23.2
2022-09-07T19:01:28.288Z,23.0
2022-09-07T19:06:10.404Z,22.8
2022-09-07T19:11:40.823Z,22.7
2022-09-07T19:16:57.432Z,22.5
2022-09-07T19:22:04.788Z,22.5
2022-09-07T19:27:11.167Z,22.3
2022-09-07T19:32:07.817Z,22.2
2022-09-07T19:37:24.140Z,22.1
2022-09-07T19:42:20.614Z,22.0
2022-09-07T19:47:37.132Z,21.9
2022-09-07T19:52:47.495Z,21.9
2022-09-07T19:57:39.919Z,21.8
2022-09-07T20:03:00.363Z,21.7
2022-09-07T20:08:02.731Z,21.5
2022-09-07T20:13:08.110Z,21.4
2022-09-07T20:18:15.525Z,21.4
2022-09-07T20:23:21.915Z,21.2
2022-09-07T20:30:33.581Z,21.1
2022-09-07T20:35:57.054Z,21.1
2022-09-07T20:45:11.814Z,20.8
2022-09-07T20:50:19.286Z,20.8
2022-09-07T20:55:17.388Z,20.7
2022-09-07T21:06:04.183Z,20.6
2022-09-07T21:10:46.560Z,20.5
2022-09-07T21:15:52.987Z,20.4
2022-09-07T21:21:23.371Z,20.3
2022-09-07T21:26:05.724Z,20.2
2022-09-07T21:31:02.136Z,20.2
2022-09-07T21:36:08.487Z,20.1
2022-09-07T21:41:25.017Z,20.0
2022-09-07T21:46:45.454Z,19.9
2022-09-07T21:51:27.733Z,19.9
2022-09-07T21:56:33.144Z,19.8
2022-09-07T22:01:50.619Z,19.7
2022-09-07T22:06:58.462Z,19.6
2022-09-07T22:11:54.946Z,19.6
2022-09-07T22:17:25.355Z,19.5
2022-09-07T22:22:17.716Z,19.4
2022-09-07T22:27:24.213Z,19.3
2022-09-07T22:32:20.567Z,19.3
2022-09-07T22:37:35.951Z,19.2
2022-09-07T22:42:33.350Z,19.1
2022-09-07T22:47:53.756Z,19.0
2022-09-07T22:52:56.156Z,19.0
2022-09-07T22:58:02.633Z,19.0
2022-09-07T23:02:58.969Z,18.9
2022-09-07T23:08:15.384Z,18.8
2022-09-07T23:13:21.792Z,18.7
2022-09-07T23:18:18.227Z,18.7
2022-09-07T23:23:35.021Z,18.6
2022-09-07T23:29:05.193Z,18.6
2022-09-07T23:34:11.559Z,18.5
2022-09-07T23:38:43.869Z,18.5
2022-09-07T23:44:00.270Z,18.4
2022-09-07T23:49:06.681Z,18.3
2022-09-07T23:54:17.030Z,18.3
